createdAt,value
2023-04-19T00:02:29.170Z,8.40
2023-04-19T00:04:57.789Z,8.40
2023-04-19T00:07:27.686Z,8.30
2023-04-19T00:09:55.838Z,8.30
2023-04-19T00:12:24.804Z,8.30
2023-04-19T00:14:53.433Z,8.30
2023-04-19T00:17:21.736Z,8.30
2023-04-19T00:19:51.047Z,8.20
2023-04-19T00:22:19.786Z,8.20
2023-04-19T00:24:49.744Z,8.20
2023-04-19T00:27:17.850Z,8.10
2023-04-19T00:29:46.317Z,8.10
2023-04-19T00:32:14.391Z,8.10
2023-04-19T00:34:42.848Z,8.00
2023-04-19T00:37:11.939Z,8.10
2023-04-19T00:39:40.191Z,8.10
2023-04-19T00:42:10.412Z,8.10
2023-04-19T00:44:38.992Z,8.10
2023-04-19T00:47:07.616Z,8.10
2023-04-19T00:49:35.892Z,8.10
2023-04-19T00:52:04.064Z,8.10
2023-04-19T00:54:32.950Z,8.10
2023-04-19T00:57:01.352Z,8.10
2023-04-19T00:59:32.093Z,8.10
2023-04-19T01:02:00.453Z,8.10
2023-04-19T01:04:29.042Z,8.20
2023-04-19T01:06:58.377Z,8.10
2023-04-19T01:09:26.717Z,8.10
2023-04-19T01:11:55.352Z,8.10
2023-04-19T01:14:23.803Z,8.10
2023-04-19T01:16:54.527Z,8.10
2023-04-19T01:19:23.276Z,8.10
2023-04-19T01:21:52.990Z,8.10
2023-04-19T01:24:22.776Z,8.10
2023-04-19T01:26:51.086Z,8.10
2023-04-19T01:29:22.082Z,8.10
2023-04-19T01:31:53.700Z,8.10
2023-04-19T01:34:23.372Z,8.10
2023-04-19T01:36:51.596Z,8.10
2023-04-19T01:39:19.907Z,8.10
2023-04-19T01:41:49.812Z,8.10
2023-04-19T01:44:18.109Z,8.10
2023-04-19T01:46:46.518Z,8.60
2023-04-19T01:49:14.978Z,8.10
2023-04-19T01:51:43.210Z,8.20
2023-04-19T01:54:11.563Z,8.20
2023-04-19T01:56:39.757Z,8.20
2023-04-19T01:59:09.461Z,8.20
2023-04-19T02:01:37.881Z,8.20
2023-04-19T02:04:06.184Z,8.20
2023-04-19T02:06:34.453Z,8.10
2023-04-19T02:09:02.635Z,8.30
2023-04-19T02:11:31.018Z,8.10
2023-04-19T02:13:59.449Z,8.10
2023-04-19T02:16:29.318Z,8.00
2023-04-19T02:18:57.759Z,8.00
2023-04-19T02:21:26.136Z,8.00
2023-04-19T02:23:54.793Z,8.00
2023-04-19T02:26:24.612Z,8.00
2023-04-19T02:28:53.338Z,8.00
2023-04-19T02:31:21.734Z,8.00
2023-04-19T02:33:52.218Z,8.00
2023-04-19T02:36:21.456Z,8.00
2023-04-19T02:38:50.406Z,7.70
2023-04-19T02:41:19.396Z,7.90
2023-04-19T02:43:47.579Z,7.90
2023-04-19T02:46:15.878Z,7.90
2023-04-19T02:48:44.134Z,7.80
2023-04-19T02:51:18.519Z,7.90
2023-04-19T02:53:47.153Z,7.90
2023-04-19T02:56:16.637Z,7.80
2023-04-19T02:58:45.179Z,7.70
2023-04-19T03:01:15.242Z,7.90
2023-04-19T03:03:43.532Z,7.90
2023-04-19T03:06:11.907Z,7.90
2023-04-19T03:08:41.618Z,7.80
2023-04-19T03:11:09.969Z,7.90
2023-04-19T03:13:38.087Z,7.90
2023-04-19T03:16:07.205Z,7.90
2023-04-19T03:18:36.462Z,7.90
2023-04-19T03:21:05.385Z,7.90
2023-04-19T03:23:33.498Z,7.90
2023-04-19T03:26:04.073Z,7.90
2023-04-19T03:28:32.336Z,7.90
2023-04-19T03:31:01.006Z,7.90
2023-04-19T03:33:31.707Z,7.90
2023-04-19T03:36:00.200Z,7.90
2023-04-19T03:38:28.800Z,7.90
2023-04-19T03:40:58.034Z,7.90
2023-04-19T03:43:27.776Z,7.90
2023-04-19T03:45:56.084Z,7.90
2023-04-19T03:48:24.377Z,7.90
2023-04-19T03:50:53.144Z,7.90
2023-04-19T03:53:21.325Z,7.90
2023-04-19T03:55:49.900Z,8.00
2023-04-19T03:58:18.839Z,7.90
2023-04-19T04:00:48.645Z,7.90
2023-04-19T04:03:17.025Z,8.00
2023-04-19T04:05:45.679Z,7.90
2023-04-19T04:08:14.188Z,8.00
2023-04-19T04:10:42.583Z,8.20
2023-04-19T04:13:14.239Z,7.90
2023-04-19T04:15:45.195Z,8.10
2023-04-19T04:18:16.361Z,8.00
2023-04-19T04:20:45.755Z,7.80
2023-04-19T04:23:39.612Z,7.90
2023-04-19T04:26:11.434Z,7.90
2023-04-19T04:28:39.563Z,8.00
2023-04-19T04:31:08.252Z,7.90
2023-04-19T04:33:43.940Z,8.00
2023-04-19T04:36:12.305Z,7.80
2023-04-19T04:38:41.320Z,7.80
2023-04-19T04:41:09.551Z,7.90
2023-04-19T04:43:38.435Z,7.90
2023-04-19T04:46:08.004Z,7.80
2023-04-19T04:48:37.902Z,7.70
2023-04-19T04:51:08.385Z,7.80
2023-04-19T04:53:36.823Z,7.80
2023-04-19T04:56:11.317Z,7.60
2023-04-19T04:58:43.101Z,7.90
2023-04-19T05:01:13.484Z,7.80
2023-04-19T05:06:49.645Z,8.00
2023-04-19T05:09:19.568Z,8.00
2023-04-19T05:11:47.664Z,7.90
2023-04-19T05:14:15.727Z,7.90
2023-04-19T05:16:46.593Z,8.00
2023-04-19T05:19:16.189Z,7.90
2023-04-19T05:21:44.267Z,8.00
2023-04-19T05:24:12.552Z,8.10
2023-04-19T05:26:42.723Z,8.10
2023-04-19T05:29:10.788Z,8.00
2023-04-19T05:31:38.961Z,8.20
2023-04-19T05:37:07.592Z,8.10
2023-04-19T05:39:52.525Z,8.10
2023-04-19T05:47:50.800Z,8.20
2023-04-19T05:50:20.587Z,8.10
2023-04-19T05:52:50.159Z,8.10
2023-04-19T05:55:18.901Z,8.10
2023-04-19T05:57:47.011Z,8.10
2023-04-19T06:00:16.509Z,8.10
2023-04-19T06:02:45.032Z,8.10
2023-04-19T06:05:13.582Z,8.20
2023-04-19T06:07:47.214Z,8.10
2023-04-19T06:10:24.884Z,8.10
2023-04-19T06:12:54.103Z,8.10
2023-04-19T06:15:22.761Z,8.10
2023-04-19T06:17:52.058Z,8.10
2023-04-19T06:20:20.261Z,8.10
2023-04-19T06:22:49.825Z,8.10
2023-04-19T06:25:18.159Z,8.10
2023-04-19T06:27:49.132Z,8.10
2023-04-19T06:30:19.750Z,8.20
2023-04-19T06:32:47.964Z,8.20
2023-04-19T06:35:17.000Z,8.10
2023-04-19T06:37:45.916Z,8.10
2023-04-19T06:40:14.365Z,8.10
2023-04-19T06:42:44.563Z,8.10
2023-04-19T06:45:21.425Z,8.20
2023-04-19T06:47:49.597Z,8.10
2023-04-19T06:50:17.729Z,8.20
2023-04-19T06:52:46.126Z,8.30
2023-04-19T06:55:14.484Z,8.40
2023-04-19T06:57:43.601Z,8.40
2023-04-19T07:00:15.276Z,8.40
2023-04-19T07:02:43.708Z,8.50
2023-04-19T07:05:12.957Z,8.40
2023-04-19T07:07:41.410Z,8.30
2023-04-19T07:10:12.996Z,8.30
2023-04-19T07:12:41.575Z,8.50
2023-04-19T07:15:11.354Z,8.40
2023-04-19T07:17:41.414Z,8.50
2023-04-19T07:20:10.380Z,8.60
2023-04-19T07:22:38.501Z,8.80
2023-04-19T07:25:07.088Z,8.80
2023-04-19T07:27:35.195Z,9.00
2023-04-19T07:30:04.279Z,9.10
2023-04-19T07:35:03.633Z,9.20
2023-04-19T07:37:31.861Z,9.40
2023-04-19T07:40:01.417Z,9.60
2023-04-19T07:42:34.126Z,9.80
2023-04-19T07:45:03.931Z,10.80
2023-04-19T07:47:33.727Z,10.00
2023-04-19T07:50:04.712Z,10.30
2023-04-19T07:52:33.126Z,10.40
2023-04-19T07:55:01.797Z,10.40
2023-04-19T07:57:30.390Z,10.50
2023-04-19T07:59:59.347Z,10.50
2023-04-19T08:02:28.397Z,10.50
2023-04-19T08:04:57.986Z,10.60
2023-04-19T08:07:29.389Z,10.50
2023-04-19T08:09:58.458Z,10.50
2023-04-19T08:12:36.423Z,10.60
2023-04-19T08:15:29.164Z,10.40
2023-04-19T08:17:57.216Z,10.40
2023-04-19T08:20:26.125Z,10.30
2023-04-19T08:22:56.376Z,10.10
2023-04-19T08:25:28.591Z,10.10
2023-04-19T08:27:57.650Z,10.10
2023-04-19T08:30:26.123Z,10.40
2023-04-19T08:32:56.970Z,10.10
2023-04-19T08:35:26.214Z,10.00
2023-04-19T08:37:55.564Z,9.90
2023-04-19T08:40:24.083Z,10.00
2023-04-19T08:42:52.295Z,10.10
2023-04-19T08:48:00.655Z,10.10
2023-04-19T08:50:38.745Z,10.10
2023-04-19T08:53:24.866Z,9.10
2023-04-19T08:58:45.786Z,10.10
2023-04-19T09:01:22.794Z,10.10
2023-04-19T09:04:04.696Z,10.10
2023-04-19T09:06:44.979Z,10.20
2023-04-19T09:09:34.743Z,9.70
2023-04-19T09:12:32.496Z,10.00
2023-04-19T09:15:02.521Z,10.10
2023-04-19T09:17:31.549Z,10.20
2023-04-19T09:20:00.459Z,10.60
2023-04-19T09:22:29.910Z,10.50
2023-04-19T09:30:09.291Z,11.00
2023-04-19T09:32:49.277Z,11.00
2023-04-19T09:35:17.814Z,11.10
2023-04-19T09:38:05.726Z,11.20
2023-04-19T09:40:36.563Z,11.10
2023-04-19T09:45:43.851Z,11.00
2023-04-19T09:48:12.965Z,11.00
2023-04-19T09:50:58.478Z,10.90
2023-04-19T09:53:29.993Z,10.90
2023-04-19T09:56:02.376Z,11.00
2023-04-19T10:01:13.335Z,11.10
2023-04-19T10:03:44.246Z,10.60
2023-04-19T10:06:20.639Z,10.90
2023-04-19T10:09:03.965Z,10.60
2023-04-19T10:14:10.008Z,10.20
2023-04-19T10:16:38.794Z,10.30
2023-04-19T10:19:10.258Z,10.40
2023-04-19T10:21:39.340Z,10.00
2023-04-19T10:24:08.265Z,10.40
2023-04-19T10:27:12.249Z,10.30
2023-04-19T10:29:59.714Z,10.40
2023-04-19T10:32:37.929Z,10.60
2023-04-19T10:35:09.482Z,10.90
2023-04-19T10:37:41.808Z,10.90
2023-04-19T10:40:12.669Z,11.20
2023-04-19T10:43:18.729Z,11.10
2023-04-19T10:45:47.148Z,11.20
2023-04-19T10:48:35.670Z,11.60
2023-04-19T10:51:05.186Z,11.80
2023-04-19T10:53:47.352Z,12.10
2023-04-19T10:56:15.782Z,11.90
2023-04-19T10:59:22.400Z,12.00
2023-04-19T11:01:56.039Z,11.60
2023-04-19T11:04:46.520Z,11.50
2023-04-19T11:07:14.525Z,11.40
2023-04-19T11:09:47.188Z,11.50
2023-04-19T11:12:16.303Z,11.60
2023-04-19T11:14:46.808Z,11.30
2023-04-19T11:17:19.794Z,11.40
2023-04-19T11:19:54.994Z,11.10
2023-04-19T11:22:27.702Z,10.80
2023-04-19T11:24:55.480Z,11.00
2023-04-19T11:27:23.680Z,10.70
2023-04-19T11:29:52.866Z,10.80
2023-04-19T11:32:23.242Z,10.90
2023-04-19T11:34:51.895Z,10.80
2023-04-19T11:37:19.997Z,10.60
2023-04-19T11:39:48.278Z,10.60
2023-04-19T11:42:20.286Z,10.60
2023-04-19T11:44:53.412Z,10.60
2023-04-19T11:47:21.537Z,10.00
2023-04-19T11:49:49.442Z,10.30
2023-04-19T11:52:22.972Z,10.10
2023-04-19T11:54:51.763Z,9.80
2023-04-19T11:57:29.368Z,9.80
2023-04-19T12:00:08.217Z,9.50
2023-04-19T12:02:39.722Z,9.40
2023-04-19T12:05:12.494Z,9.70
2023-04-19T12:07:59.264Z,9.20
2023-04-19T12:10:27.420Z,9.20
2023-04-19T12:12:55.368Z,9.00
2023-04-19T12:15:26.368Z,9.30
2023-04-19T12:18:00.520Z,8.90
2023-04-19T12:20:32.702Z,9.30
2023-04-19T12:23:01.228Z,9.20
2023-04-19T12:25:30.980Z,9.10
2023-04-19T12:27:59.211Z,9.10
2023-04-19T12:30:28.607Z,9.00
2023-04-19T12:32:56.717Z,8.70
2023-04-19T12:35:26.708Z,8.70
2023-04-19T12:37:58.314Z,8.60
2023-04-19T12:40:27.240Z,8.60
2023-04-19T12:42:55.852Z,8.90
2023-04-19T12:45:24.861Z,8.60
2023-04-19T12:47:54.208Z,8.70
2023-04-19T12:50:22.224Z,8.60
2023-04-19T12:52:51.747Z,8.50
2023-04-19T12:55:19.639Z,8.50
2023-04-19T12:57:47.696Z,8.60
2023-04-19T13:00:16.052Z,8.50
2023-04-19T13:02:44.386Z,8.70
2023-04-19T13:05:13.835Z,8.80
2023-04-19T13:07:42.114Z,8.80
2023-04-19T13:10:10.695Z,8.10
2023-04-19T13:12:38.532Z,8.60
2023-04-19T13:15:07.365Z,8.60
2023-04-19T13:17:37.116Z,8.70
2023-04-19T13:20:06.352Z,8.80
2023-04-19T13:22:35.500Z,8.70
2023-04-19T13:25:03.867Z,8.70
2023-04-19T13:27:31.690Z,9.00
2023-04-19T13:29:59.535Z,8.60
2023-04-19T13:32:27.382Z,8.80
2023-04-19T13:34:55.290Z,8.40
2023-04-19T13:37:23.177Z,8.70
2023-04-19T13:39:52.569Z,8.50
2023-04-19T13:42:24.340Z,8.40
2023-04-19T13:44:52.192Z,8.40
2023-04-19T13:47:19.954Z,8.60
2023-04-19T13:49:52.080Z,8.70
2023-04-19T13:52:19.978Z,8.40
2023-04-19T13:54:47.794Z,8.70
2023-04-19T13:57:18.816Z,8.40
2023-04-19T13:59:46.892Z,8.40
2023-04-19T14:02:14.799Z,8.30
2023-04-19T14:04:43.268Z,8.30
2023-04-19T14:07:11.129Z,8.10
2023-04-19T14:09:42.442Z,8.30
2023-04-19T14:12:10.916Z,7.90
2023-04-19T14:14:40.291Z,7.80
2023-04-19T14:17:08.491Z,7.80
2023-04-19T14:19:36.800Z,7.50
2023-04-19T14:22:04.891Z,7.50
2023-04-19T14:24:32.931Z,7.20
2023-04-19T14:27:10.411Z,7.00
2023-04-19T14:29:40.655Z,7.00
2023-04-19T14:32:24.532Z,6.80
2023-04-19T14:34:54.470Z,6.90
2023-04-19T14:37:23.095Z,7.10
2023-04-19T14:39:51.167Z,7.00
2023-04-19T14:42:21.689Z,6.80
2023-04-19T14:44:53.185Z,7.00
2023-04-19T14:47:21.939Z,6.80
2023-04-19T14:49:52.424Z,6.70
2023-04-19T14:52:21.185Z,6.70
2023-04-19T14:54:49.261Z,6.50
2023-04-19T14:57:17.204Z,6.50
2023-04-19T14:59:45.155Z,6.40
2023-04-19T15:02:14.467Z,6.50
2023-04-19T15:04:43.043Z,6.30
2023-04-19T15:07:11.627Z,6.50
2023-04-19T15:09:41.112Z,6.20
2023-04-19T15:12:09.246Z,6.20
2023-04-19T15:14:37.086Z,6.20
2023-04-19T15:17:05.101Z,6.10
2023-04-19T15:19:34.356Z,6.20
2023-04-19T15:22:03.798Z,6.30
2023-04-19T15:24:31.746Z,6.30
2023-04-19T15:26:59.974Z,6.40
2023-04-19T15:29:27.817Z,6.20
2023-04-19T15:31:55.710Z,6.20
2023-04-19T15:34:25.320Z,6.10
2023-04-19T15:36:54.627Z,6.00
2023-04-19T15:39:22.396Z,6.40
2023-04-19T15:41:50.574Z,6.10
2023-04-19T15:44:18.472Z,6.30
2023-04-19T15:46:46.339Z,6.20
2023-04-19T15:49:14.353Z,6.40
2023-04-19T15:51:42.383Z,6.00
2023-04-19T15:54:12.061Z,6.20
2023-04-19T15:56:39.884Z,6.60
2023-04-19T15:59:07.981Z,6.20
2023-04-19T16:04:04.861Z,6.10
2023-04-19T16:06:33.007Z,6.10
2023-04-19T16:09:01.065Z,5.90
2023-04-19T16:11:31.336Z,5.80
2023-04-19T16:16:32.903Z,5.90
2023-04-19T16:19:00.931Z,6.20
2023-04-19T16:21:28.774Z,5.90
2023-04-19T16:23:56.859Z,6.10
2023-04-19T16:31:24.703Z,5.90
2023-04-19T16:33:52.586Z,6.20
2023-04-19T16:36:20.405Z,5.90
2023-04-19T16:38:48.217Z,5.70
2023-04-19T16:41:15.983Z,5.60
2023-04-19T16:43:44.046Z,5.70
2023-04-19T16:53:38.231Z,5.40
2023-04-19T16:58:34.470Z,5.30
2023-04-19T17:03:32.576Z,5.10
2023-04-19T17:06:01.784Z,5.10
2023-04-19T17:08:29.755Z,5.20
2023-04-19T17:13:26.371Z,5.30
2023-04-19T17:15:54.491Z,5.20
2023-04-19T17:20:52.114Z,5.30
2023-04-19T17:23:21.786Z,5.30
2023-04-19T17:28:18.018Z,5.30
2023-04-19T17:35:44.275Z,5.10
2023-04-19T17:38:14.268Z,5.00
2023-04-19T17:43:11.502Z,5.10
2023-04-19T17:53:04.813Z,5.10
2023-04-19T17:58:03.087Z,5.20
2023-04-19T18:00:30.890Z,5.20
2023-04-19T18:02:58.819Z,5.20
2023-04-19T18:07:55.509Z,5.20
2023-04-19T18:10:23.551Z,5.10
2023-04-19T18:12:56.355Z,5.30
2023-04-19T18:22:50.938Z,5.40
2023-04-19T18:25:19.182Z,5.20
2023-04-19T18:27:47.200Z,5.30
2023-04-19T18:30:16.603Z,5.20
2023-04-19T18:35:13.088Z,5.30
2023-04-19T18:37:41.642Z,5.30
2023-04-19T18:45:10.136Z,5.20
2023-04-19T18:55:07.204Z,5.10
2023-04-19T18:57:35.569Z,5.10
2023-04-19T19:00:06.058Z,5.30
2023-04-19T19:07:37.799Z,5.30
2023-04-19T19:12:39.529Z,5.00
2023-04-19T19:15:09.035Z,5.00
2023-04-19T19:17:37.840Z,5.00
2023-04-19T19:27:35.409Z,5.10
2023-04-19T19:30:03.710Z,5.10
2023-04-19T19:32:32.293Z,5.20
2023-04-19T19:35:05.426Z,5.20
2023-04-19T19:42:40.594Z,5.30
2023-04-19T19:47:45.690Z,5.30
2023-04-19T20:01:51.389Z,5.00
2023-04-19T20:07:53.634Z,5.10
2023-04-19T20:10:27.710Z,5.00
2023-04-19T20:13:46.658Z,5.00
2023-04-19T20:43:35.441Z,5.00
2023-04-19T20:51:27.965Z,4.90
2023-04-19T20:59:32.501Z,5.00
2023-04-19T21:04:32.537Z,5.00
2023-04-19T21:09:30.902Z,5.00
2023-04-19T21:17:00.753Z,4.90
2023-04-19T21:19:28.660Z,4.80
2023-04-19T21:21:56.777Z,4.80
2023-04-19T21:24:24.681Z,4.90
2023-04-19T21:26:52.651Z,4.90
2023-04-19T21:29:20.832Z,5.00
2023-04-19T21:31:50.340Z,5.10
2023-04-19T21:34:18.357Z,5.00
2023-04-19T21:44:13.445Z,5.00
2023-04-19T21:49:11.345Z,5.10
2023-04-19T21:51:39.381Z,5.00
2023-04-19T21:56:36.517Z,5.10
2023-04-19T21:59:04.447Z,5.10
2023-04-19T22:04:01.864Z,5.10
2023-04-19T22:09:02.741Z,5.10
2023-04-19T22:11:31.334Z,5.00
2023-04-19T22:16:30.126Z,5.10
2023-04-19T22:23:56.940Z,5.00
2023-04-19T22:31:23.847Z,5.00
2023-04-19T22:36:20.249Z,5.10
2023-04-19T22:41:18.284Z,5.10
2023-04-19T22:43:46.324Z,5.00
2023-04-19T22:51:12.044Z,5.00
2023-04-19T23:01:07.532Z,4.90
2023-04-19T23:03:35.809Z,5.00
2023-04-19T23:06:04.182Z,5.00
2023-04-19T23:11:01.341Z,4.90
2023-04-19T23:26:11.094Z,5.00
2023-04-19T23:33:37.902Z,5.00
2023-04-19T23:36:06.394Z,4.90
2023-04-19T23:38:34.323Z,5.10
2023-04-19T23:41:02.248Z,4.90
2023-04-19T23:43:30.599Z,4.90
2023-04-19T23:48:28.759Z,4.80
2023-04-19T23:50:56.849Z,4.90
